Time;durP1;ratioP1;P1;durP2;ratioP2;P2;SDS_P1;SDS_P2;PMS_P1;PMS_P2;Temp;Humidity;BMP_temperature;BMP_pressure;BME280_temperature;BME280_humidity;BME280_pressure;Samples;Min_cycle;Max_cycle;Signal;HPM_P1;HPM_P2
2022/10/03 00:00:34;;;;;;;72.32;20.73;;;10.30;99.90;;;;;;5043753;28;20176;-84
2022/10/03 00:03:33;;;;;;;75.68;18.70;;;10.30;99.90;;;;;;5044655;28;20169;-84
2022/10/03 00:06:24;;;;;;;76.97;19.83;;;10.30;99.90;;;;;;5043890;28;20177;-84
2022/10/03 00:09:19;;;;;;;71.35;19.73;;;10.30;99.90;;;;;;5044674;28;20188;-84
2022/10/03 00:12:32;;;;;;;79.10;18.80;;;10.20;99.90;;;;;;5045262;28;20156;-85
2022/10/03 00:15:00;;;;;;;74.50;21.08;;;10.20;99.90;;;;;;5042314;28;20185;-84
2022/10/03 00:17:35;;;;;;;72.30;19.73;;;10.20;99.90;;;;;;5043264;28;20203;-84
2022/10/03 00:20:13;;;;;;;71.05;16.50;;;10.10;99.90;;;;;;5044396;28;20572;-85
2022/10/03 00:23:02;;;;;;;77.63;18.40;;;10.00;99.90;;;;;;5044020;28;20203;-85
2022/10/03 00:25:47;;;;;;;72.95;18.63;;;10.00;99.90;;;;;;5043877;28;20230;-85
2022/10/03 00:28:42;;;;;;;72.90;21.08;;;10.00;99.90;;;;;;5044190;28;20185;-85
2022/10/03 00:31:22;;;;;;;72.10;16.02;;;10.00;99.90;;;;;;5044487;28;20150;-85
2022/10/03 00:34:02;;;;;;;70.95;15.93;;;10.00;99.90;;;;;;5044326;28;20180;-84
2022/10/03 00:36:48;;;;;;;73.47;17.92;;;9.90;99.90;;;;;;5045010;28;20153;-85
2022/10/03 00:39:29;;;;;;;72.93;17.13;;;9.90;99.90;;;;;;5044497;28;20189;-85
2022/10/03 00:42:07;;;;;;;74.97;17.10;;;9.90;99.90;;;;;;5026714;28;20184;-85
2022/10/03 00:45:02;;;;;;;76.97;15.73;;;9.90;99.90;;;;;;5027152;28;20538;-85
2022/10/03 00:47:43;;;;;;;74.43;15.43;;;9.80;99.90;;;;;;5045245;28;20169;-84
2022/10/03 00:50:29;;;;;;;76.68;17.77;;;9.80;99.90;;;;;;5026778;28;20164;-85
2022/10/03 00:53:16;;;;;;;68.78;14.13;;;9.80;99.90;;;;;;5043653;28;20213;-85
2022/10/03 00:55:45;;;;;;;75.03;14.93;;;9.80;99.90;;;;;;5043483;28;20271;-84
2022/10/03 00:58:38;;;;;;;71.40;16.85;;;9.70;99.90;;;;;;5043332;28;20263;-85
2022/10/03 01:01:29;;;;;;;72.45;16.10;;;9.70;99.90;;;;;;5043325;28;20248;-85
2022/10/03 01:04:04;;;;;;;72.80;17.27;;;9.70;99.90;;;;;;5043232;28;20184;-85
2022/10/03 01:06:44;;;;;;;79.10;17.02;;;9.70;99.90;;;;;;5044264;28;20704;-85
2022/10/03 01:09:24;;;;;;;74.07;16.83;;;9.60;99.90;;;;;;5043856;28;20219;-85
2022/10/03 01:12:17;;;;;;;73.78;15.32;;;9.70;99.90;;;;;;5027410;28;20194;-85
2022/10/03 01:15:34;;;;;;;70.57;15.00;;;9.70;99.90;;;;;;5046894;28;20204;-85
2022/10/03 01:18:36;;;;;;;78.55;17.65;;;9.70;99.90;;;;;;5011172;28;20209;-85
2022/10/03 01:21:59;;;;;;;75.05;20.02;;;9.60;99.90;;;;;;5047993;28;20608;-85
2022/10/03 01:24:42;;;;;;;69.85;15.25;;;9.60;99.90;;;;;;5031071;28;20288;-84
2022/10/03 01:27:13;;;;;;;70.05;16.48;;;9.60;99.90;;;;;;5047775;28;20150;-85
2022/10/03 01:32:53;;;;;;;73.30;17.33;;;9.70;99.90;;;;;;5048846;28;20152;-85
2022/10/03 01:35:31;;;;;;;73.78;17.08;;;9.70;99.90;;;;;;5030494;28;20571;-85
2022/10/03 01:38:28;;;;;;;76.57;15.98;;;9.70;99.90;;;;;;5048533;28;20189;-84
2022/10/03 01:41:46;;;;;;;71.32;14.75;;;9.80;99.90;;;;;;5026784;28;20239;-85
2022/10/03 01:44:15;;;;;;;72.90;17.05;;;9.70;99.90;;;;;;5029125;28;20197;-85
2022/10/03 01:46:51;;;;;;;74.57;17.45;;;9.80;99.90;;;;;;5029795;28;20169;-85
2022/10/03 01:49:25;;;;;;;72.05;17.40;;;9.80;99.90;;;;;;5029589;28;20209;-85
2022/10/03 01:51:58;;;;;;;71.57;19.25;;;9.70;99.90;;;;;;5047676;28;20156;-84
2022/10/03 01:54:44;;;;;;;79.50;16.45;;;9.70;99.90;;;;;;5047325;28;20225;-85
2022/10/03 01:57:24;;;;;;;76.78;19.15;;;9.70;99.90;;;;;;5029782;28;20169;-85
2022/10/03 02:00:12;;;;;;;74.50;16.63;;;9.70;99.90;;;;;;5046461;28;20141;-84
2022/10/03 02:02:53;;;;;;;71.43;14.70;;;9.60;99.90;;;;;;5046559;28;20559;-85
2022/10/03 02:05:37;;;;;;;75.10;13.30;;;9.60;99.90;;;;;;5029398;28;20254;-85
2022/10/03 02:08:13;;;;;;;76.63;13.52;;;9.60;99.90;;;;;;5047275;28;20217;-85
2022/10/03 02:11:00;;;;;;;71.22;14.65;;;9.60;99.90;;;;;;5046995;28;20165;-85
2022/10/03 02:13:38;;;;;;;71.10;14.27;;;9.70;99.90;;;;;;5047050;28;20153;-85
2022/10/03 02:16:25;;;;;;;73.13;12.50;;;9.60;99.90;;;;;;5028861;28;20164;-85
2022/10/03 02:19:26;;;;;;;74.40;14.38;;;9.70;99.90;;;;;;5046449;28;20185;-84
2022/10/03 02:21:54;;;;;;;79.53;11.95;;;9.70;99.90;;;;;;5046901;28;20153;-84
2022/10/03 02:24:34;;;;;;;73.50;11.90;;;9.80;99.90;;;;;;5028880;28;20676;-85
2022/10/03 02:28:06;;;;;;;72.22;13.68;;;9.80;99.90;;;;;;5046435;28;20180;-85
2022/10/03 02:30:46;;;;;;;74.72;13.15;;;9.90;99.90;;;;;;5006387;28;20217;-85
2022/10/03 02:33:34;;;;;;;76.60;15.70;;;10.00;99.90;;;;;;4989606;28;20190;-85
2022/10/03 02:36:19;;;;;;;76.30;15.48;;;10.00;99.90;;;;;;5017235;28;20185;-85
2022/10/03 02:38:48;;;;;;;73.97;15.63;;;10.10;99.90;;;;;;5011390;28;20296;-85
2022/10/03 02:41:17;;;;;;;73.38;15.98;;;10.10;99.90;;;;;;5046463;28;20655;-85
2022/10/03 02:44:17;;;;;;;79.75;16.17;;;10.10;99.90;;;;;;5028337;28;20276;-85
2022/10/03 02:46:57;;;;;;;79.32;16.50;;;10.10;99.90;;;;;;5046210;28;20247;-84
2022/10/03 02:49:57;;;;;;;72.00;13.63;;;10.10;99.90;;;;;;5046509;28;20181;-85
2022/10/03 02:52:59;;;;;;;76.55;12.40;;;10.10;99.90;;;;;;5010485;28;20202;-84
2022/10/03 02:55:49;;;;;;;75.38;16.05;;;10.10;99.90;;;;;;5028084;28;20565;-85
2022/10/03 02:58:43;;;;;;;81.25;16.15;;;10.00;99.90;;;;;;5028602;28;20209;-85
2022/10/03 03:01:40;;;;;;;74.28;14.25;;;10.00;99.90;;;;;;5028713;28;20188;-85
2022/10/03 03:04:36;;;;;;;84.63;14.32;;;9.90;99.90;;;;;;5046409;28;20188;-85
2022/10/03 03:07:48;;;;;;;75.60;13.95;;;9.90;99.90;;;;;;5046095;28;20176;-85
2022/10/03 03:10:39;;;;;;;71.75;13.52;;;9.90;99.90;;;;;;5006395;28;20174;-85
2022/10/03 03:13:34;;;;;;;73.90;12.35;;;9.80;99.90;;;;;;5008412;28;20216;-85
2022/10/03 03:16:33;;;;;;;72.65;14.90;;;9.70;99.90;;;;;;5047287;28;20177;-85
2022/10/03 03:19:20;;;;;;;73.25;14.88;;;9.70;99.90;;;;;;5050620;28;20193;-85
2022/10/03 03:22:04;;;;;;;71.80;14.63;;;9.70;99.90;;;;;;5045375;28;20157;-85
2022/10/03 03:24:39;;;;;;;72.20;14.27;;;9.60;99.90;;;;;;5045655;28;20187;-85
2022/10/03 03:27:17;;;;;;;76.82;12.05;;;9.60;99.90;;;;;;5027994;28;20239;-85
2022/10/03 03:30:08;;;;;;;70.53;14.20;;;9.50;99.90;;;;;;5046443;28;20169;-85
2022/10/03 03:32:57;;;;;;;73.05;16.60;;;9.50;99.90;;;;;;5030787;28;20176;-85
2022/10/03 03:35:45;;;;;;;75.82;14.25;;;9.40;99.90;;;;;;5045314;28;20196;-85
2022/10/03 03:38:30;;;;;;;71.07;16.05;;;9.40;99.90;;;;;;5045132;28;20181;-84
2022/10/03 03:41:19;;;;;;;74.25;16.50;;;9.40;99.90;;;;;;5045222;28;20149;-85
2022/10/03 03:44:11;;;;;;;71.82;18.63;;;9.40;99.90;;;;;;5046575;28;20181;-85
2022/10/03 03:46:49;;;;;;;74.72;15.55;;;9.40;99.90;;;;;;5028384;28;20158;-85
2022/10/03 03:49:28;;;;;;;72.25;13.45;;;9.40;99.90;;;;;;5044908;28;20181;-85
2022/10/03 03:52:21;;;;;;;75.05;15.80;;;9.40;99.90;;;;;;5028319;28;20157;-85
2022/10/03 03:55:08;;;;;;;72.50;15.07;;;9.30;99.90;;;;;;5045718;28;20188;-84
2022/10/03 03:57:58;;;;;;;72.78;13.80;;;9.30;99.90;;;;;;5045465;28;20628;-85
2022/10/03 04:00:55;;;;;;;73.07;13.38;;;9.30;99.90;;;;;;5026705;28;20280;-85
2022/10/03 04:03:27;;;;;;;70.30;13.73;;;9.30;99.90;;;;;;5046525;28;20169;-85
2022/10/03 04:06:25;;;;;;;75.97;14.98;;;9.30;99.90;;;;;;5028517;28;20169;-84
2022/10/03 04:09:18;;;;;;;70.95;11.95;;;9.20;99.90;;;;;;5028595;28;20212;-86
2022/10/03 04:11:53;;;;;;;73.55;12.00;;;9.20;99.90;;;;;;5028421;28;20223;-85
2022/10/03 04:14:49;;;;;;;75.43;14.85;;;9.20;99.90;;;;;;5045623;28;20179;-85
2022/10/03 04:20:38;;;;;;;72.50;12.50;;;9.10;99.90;;;;;;5045983;28;20160;-84
2022/10/03 04:23:15;;;;;;;73.05;12.25;;;9.10;99.90;;;;;;5045809;28;20168;-84
2022/10/03 04:26:19;;;;;;;69.82;12.55;;;9.00;99.90;;;;;;5045391;28;20188;-85
2022/10/03 04:29:10;;;;;;;71.85;13.80;;;9.00;99.90;;;;;;5031020;28;20220;-85
2022/10/03 04:31:37;;;;;;;73.75;13.60;;;9.00;99.90;;;;;;5046174;28;20146;-85
2022/10/03 04:34:35;;;;;;;72.53;15.90;;;8.90;99.90;;;;;;5046599;28;20165;-85
2022/10/03 04:37:19;;;;;;;74.10;14.00;;;8.90;99.90;;;;;;5030892;28;20200;-85
2022/10/03 04:40:16;;;;;;;72.15;14.18;;;8.90;99.90;;;;;;5028556;28;20173;-85
2022/10/03 04:43:08;;;;;;;76.30;14.45;;;8.90;99.90;;;;;;5046043;28;20157;-85
2022/10/03 04:46:15;;;;;;;74.97;15.40;;;8.90;99.90;;;;;;5045453;28;20181;-85
2022/10/03 04:49:11;;;;;;;74.18;16.40;;;8.90;99.90;;;;;;5026097;28;20283;-84
2022/10/03 04:51:50;;;;;;;75.93;16.90;;;8.90;99.90;;;;;;5027988;28;20188;-85
2022/10/03 04:54:42;;;;;;;77.47;20.30;;;8.90;99.90;;;;;;5045696;28;20291;-84
2022/10/03 04:57:29;;;;;;;73.20;16.10;;;8.90;99.90;;;;;;5045657;28;20506;-84
2022/10/03 04:59:54;;;;;;;76.53;20.20;;;9.00;99.90;;;;;;5114568;22;20184;-87
2022/10/03 05:02:23;;;;;;;75.03;19.47;;;9.10;99.90;;;;;;5036687;28;20181;-87
2022/10/03 05:05:16;;;;;;;77.88;19.08;;;9.20;99.90;;;;;;5019327;28;20668;-87
2022/10/03 05:08:01;;;;;;;83.18;21.23;;;9.30;99.90;;;;;;5018810;28;20185;-87
2022/10/03 05:10:55;;;;;;;78.55;20.02;;;9.30;99.90;;;;;;5036997;28;20153;-87
2022/10/03 05:13:52;;;;;;;75.47;18.40;;;9.40;99.90;;;;;;5036939;28;20142;-87
2022/10/03 05:16:41;;;;;;;78.63;19.35;;;9.40;99.90;;;;;;5019341;28;20168;-87
2022/10/03 05:19:52;;;;;;;78.40;20.63;;;9.50;99.90;;;;;;5017724;28;20276;-87
2022/10/03 05:22:39;;;;;;;71.90;16.75;;;9.50;99.90;;;;;;5035694;28;20170;-87
2022/10/03 05:25:27;;;;;;;74.35;18.95;;;9.50;99.90;;;;;;5035749;28;20211;-87
2022/10/03 05:28:14;;;;;;;78.60;18.80;;;9.50;99.90;;;;;;5035928;28;20189;-87
2022/10/03 05:30:52;;;;;;;77.45;19.45;;;9.50;99.90;;;;;;5035185;28;20173;-87
2022/10/03 05:33:26;;;;;;;74.15;19.17;;;9.60;99.90;;;;;;5036204;28;20221;-87
2022/10/03 05:36:17;;;;;;;76.95;19.85;;;9.60;99.90;;;;;;5037034;28;20156;-87
2022/10/03 05:39:19;;;;;;;74.78;18.58;;;9.60;99.90;;;;;;5035863;28;20189;-87
2022/10/03 05:42:12;;;;;;;74.95;20.63;;;9.60;99.90;;;;;;5035343;28;20165;-87
2022/10/03 05:44:47;;;;;;;77.38;20.38;;;9.60;99.90;;;;;;5035662;28;20544;-87
2022/10/03 05:47:44;;;;;;;75.50;21.05;;;9.70;99.90;;;;;;5035600;28;20190;-87
2022/10/03 05:50:29;;;;;;;75.15;19.67;;;9.70;99.90;;;;;;5018087;28;20154;-87
2022/10/03 05:53:17;;;;;;;78.18;21.10;;;9.60;99.90;;;;;;5017794;28;20157;-87
2022/10/03 05:56:04;;;;;;;73.63;19.42;;;9.60;99.90;;;;;;5035636;28;20659;-87
2022/10/03 05:58:36;;;;;;;72.95;17.63;;;9.60;99.90;;;;;;5017582;28;20189;-87
2022/10/03 06:01:49;;;;;;;75.95;16.95;;;9.60;99.90;;;;;;5038610;28;20702;-87
2022/10/03 06:04:54;;;;;;;73.18;17.25;;;9.60;99.90;;;;;;5030174;28;20213;-87
2022/10/03 06:07:53;;;;;;;75.30;19.08;;;9.50;99.90;;;;;;5039173;28;20658;-87
2022/10/03 06:10:32;;;;;;;77.60;20.10;;;9.50;99.90;;;;;;5039056;28;20154;-87
2022/10/03 06:13:11;;;;;;;76.68;18.17;;;9.50;99.90;;;;;;5039006;28;20515;-87
2022/10/03 06:15:53;;;;;;;75.40;18.55;;;9.50;99.90;;;;;;5020891;28;20169;-87
2022/10/03 06:18:49;;;;;;;72.95;19.70;;;9.50;99.90;;;;;;5021229;28;20193;-87
2022/10/03 06:21:39;;;;;;;72.65;17.88;;;9.50;99.90;;;;;;5038651;28;20563;-87
2022/10/03 06:24:37;;;;;;;74.57;19.58;;;9.60;99.90;;;;;;5038845;28;20235;-87
2022/10/03 06:27:21;;;;;;;75.45;20.65;;;9.60;99.90;;;;;;5021240;28;20170;-87
2022/10/03 06:30:02;;;;;;;76.55;20.77;;;9.70;99.90;;;;;;5039304;28;20516;-87
2022/10/03 06:32:55;;;;;;;84.18;25.13;;;9.90;99.90;;;;;;5038972;28;20145;-86
2022/10/03 06:35:45;;;;;;;77.25;23.17;;;10.00;99.90;;;;;;5038043;28;20164;-87
2022/10/03 06:38:29;;;;;;;83.72;25.35;;;10.20;99.90;;;;;;5038746;28;20185;-87
2022/10/03 06:41:14;;;;;;;83.65;24.48;;;10.40;99.90;;;;;;5021415;28;20157;-87
2022/10/03 06:44:08;;;;;;;82.40;23.95;;;10.50;99.90;;;;;;5020937;28;20204;-87
2022/10/03 06:46:46;;;;;;;82.43;27.10;;;10.60;99.90;;;;;;5018782;28;20667;-87
2022/10/03 06:49:41;;;;;;;81.38;27.77;;;10.70;99.90;;;;;;5021142;28;20193;-87
2022/10/03 06:52:26;;;;;;;85.95;26.55;;;10.70;99.90;;;;;;5020953;28;20227;-87
2022/10/03 06:55:24;;;;;;;80.65;25.17;;;10.90;99.90;;;;;;5038835;28;20176;-87
2022/10/03 06:58:11;;;;;;;82.45;27.33;;;11.00;99.90;;;;;;5037616;28;20185;-87
2022/10/03 07:01:01;;;;;;;79.70;23.05;;;11.10;99.90;;;;;;5037969;28;20177;-87
2022/10/03 07:03:45;;;;;;;79.97;25.55;;;11.10;99.90;;;;;;5037974;28;20204;-86
2022/10/03 07:06:40;;;;;;;82.05;27.60;;;11.10;99.90;;;;;;5037274;28;20614;-86
2022/10/03 07:09:24;;;;;;;80.53;27.45;;;11.20;99.90;;;;;;5037032;28;20193;-87
2022/10/03 07:12:32;;;;;;;80.55;24.33;;;11.40;99.90;;;;;;5036592;28;20162;-88
2022/10/03 07:15:16;;;;;;;88.47;27.02;;;11.50;99.90;;;;;;5037213;28;20605;-87
2022/10/03 07:18:28;;;;;;;84.78;23.65;;;11.60;99.90;;;;;;5037078;28;20185;-87
2022/10/03 07:20:54;;;;;;;92.18;23.33;;;11.70;99.90;;;;;;4979422;28;20666;-87
2022/10/03 07:23:38;;;;;;;81.72;25.08;;;11.70;99.90;;;;;;4979389;28;20806;-87
2022/10/03 07:26:26;;;;;;;84.32;25.75;;;11.80;99.90;;;;;;5022372;28;20538;-87
2022/10/03 07:29:12;;;;;;;80.18;20.27;;;11.90;99.90;;;;;;5038217;28;20188;-87
2022/10/03 07:31:53;;;;;;;78.78;19.90;;;12.00;99.90;;;;;;5038029;28;20224;-87
2022/10/03 07:34:36;;;;;;;90.63;24.13;;;12.10;99.90;;;;;;5037112;28;20205;-87
2022/10/03 07:40:10;;;;;;;95.18;27.25;;;12.20;99.90;;;;;;5036874;28;20159;-86
2022/10/03 07:43:02;;;;;;;89.25;26.42;;;12.30;99.90;;;;;;5036940;28;20146;-87
2022/10/03 07:45:33;;;;;;;86.20;27.40;;;12.30;99.90;;;;;;5037178;28;20184;-87
2022/10/03 07:48:08;;;;;;;88.00;28.30;;;12.40;99.90;;;;;;5036377;28;20189;-87
2022/10/03 07:50:55;;;;;;;92.25;30.80;;;12.50;99.90;;;;;;5018518;28;20163;-87
2022/10/03 07:53:30;;;;;;;86.70;28.60;;;12.50;99.90;;;;;;5036502;28;20206;-87
2022/10/03 07:56:04;;;;;;;89.07;31.88;;;12.60;99.90;;;;;;5037166;28;20165;-87
2022/10/03 07:58:48;;;;;;;90.47;28.05;;;12.60;99.90;;;;;;5036311;28;20656;-87
2022/10/03 08:01:32;;;;;;;89.88;29.70;;;12.60;99.90;;;;;;5036468;28;20215;-87
2022/10/03 08:04:41;;;;;;;84.53;25.15;;;12.60;99.90;;;;;;5036697;28;20234;-87
2022/10/03 08:07:28;;;;;;;87.32;22.88;;;12.60;99.90;;;;;;5018558;28;20165;-87
2022/10/03 08:10:20;;;;;;;82.32;21.15;;;12.70;99.90;;;;;;5036526;28;20145;-87
2022/10/03 08:13:08;;;;;;;88.53;21.88;;;12.80;99.90;;;;;;5018364;28;20153;-87
2022/10/03 08:16:07;;;;;;;82.05;18.80;;;12.80;99.90;;;;;;5029630;28;20188;-87
2022/10/03 08:19:04;;;;;;;81.72;20.27;;;13.00;99.90;;;;;;5036272;28;20178;-87
2022/10/03 08:22:02;;;;;;;77.95;17.48;;;13.00;99.90;;;;;;5035975;28;20514;-87
2022/10/03 08:24:49;;;;;;;85.50;12.65;;;13.10;99.90;;;;;;5036744;28;20739;-87
2022/10/03 08:27:15;;;;;;;83.72;11.43;;;13.20;99.90;;;;;;5035943;28;20165;-87
2022/10/03 08:30:05;;;;;;;74.63;11.80;;;13.30;99.90;;;;;;5036180;28;20652;-87
2022/10/03 08:32:49;;;;;;;79.45;11.15;;;13.40;99.90;;;;;;5018288;28;20153;-87
2022/10/03 08:35:34;;;;;;;77.18;12.32;;;13.50;99.90;;;;;;5036152;28;20169;-87
2022/10/03 08:38:37;;;;;;;73.90;11.93;;;13.40;99.90;;;;;;5018508;28;20666;-87
2022/10/03 08:41:31;;;;;;;83.28;12.43;;;13.40;99.90;;;;;;5018939;28;20315;-86
2022/10/03 08:44:02;;;;;;;74.53;11.20;;;13.40;99.90;;;;;;5019195;28;20196;-86
2022/10/03 08:46:51;;;;;;;75.00;11.80;;;13.40;99.90;;;;;;5037020;28;20502;-87
2022/10/03 08:49:53;;;;;;;72.77;11.70;;;13.40;99.90;;;;;;5036692;28;20818;-86
2022/10/03 08:52:22;;;;;;;79.63;12.65;;;13.40;99.90;;;;;;5036849;28;20400;-86
2022/10/03 08:54:55;;;;;;;78.22;11.27;;;13.50;99.90;;;;;;5036798;28;20226;-86
2022/10/03 08:57:58;;;;;;;75.85;10.90;;;13.60;99.90;;;;;;5035704;28;20149;-87
2022/10/03 09:00:45;;;;;;;74.80;10.00;;;13.70;99.90;;;;;;5035628;28;20272;-87
2022/10/03 09:03:48;;;;;;;75.43;11.17;;;13.80;99.90;;;;;;5035256;28;20161;-87
2022/10/03 09:06:32;;;;;;;74.60;9.60;;;13.90;99.90;;;;;;5018022;28;21028;-87
2022/10/03 09:09:34;;;;;;;77.40;9.93;;;14.10;99.90;;;;;;5017599;28;20981;-87
2022/10/03 09:12:18;;;;;;;81.97;10.10;;;14.30;99.90;;;;;;5035606;28;20384;-86
2022/10/03 09:14:57;;;;;;;75.90;8.80;;;14.50;99.90;;;;;;5035508;28;20426;-85
2022/10/03 09:17:22;;;;;;;77.00;9.53;;;14.50;99.90;;;;;;5036849;28;20934;-86
2022/10/03 09:19:57;;;;;;;72.87;6.50;;;14.60;99.90;;;;;;5020345;28;20404;-87
2022/10/03 09:22:43;;;;;;;74.60;8.20;;;14.70;99.90;;;;;;5021017;28;20196;-86
2022/10/03 09:25:18;;;;;;;78.73;6.93;;;14.80;99.90;;;;;;5037489;28;20997;-86
2022/10/03 09:28:02;;;;;;;74.47;6.93;;;14.80;99.90;;;;;;5037990;28;20415;-85
2022/10/03 09:31:02;;;;;;;73.00;6.27;;;14.70;99.90;;;;;;5037186;28;20430;-85
2022/10/03 09:33:54;;;;;;;79.27;7.00;;;14.70;99.90;;;;;;5020263;28;20399;-86
2022/10/03 09:36:59;;;;;;;74.53;6.30;;;14.70;99.90;;;;;;5023688;28;20428;-86
2022/10/03 09:40:02;;;;;;;72.13;6.27;;;14.70;99.90;;;;;;5033541;28;20416;-86
2022/10/03 09:42:43;;;;;;;79.97;7.60;;;14.70;99.90;;;;;;5040191;28;20400;-86
2022/10/03 09:45:26;;;;;;;71.77;6.37;;;14.70;99.90;;;;;;5040518;28;20431;-85
2022/10/03 09:48:10;;;;;;;73.73;6.23;;;14.90;99.90;;;;;;5040910;28;20426;-86
2022/10/03 09:51:00;;;;;;;78.77;6.33;;;15.20;99.90;;;;;;5041317;28;20395;-85
2022/10/03 09:53:55;;;;;;;68.80;5.10;;;15.50;99.90;;;;;;5040989;28;20907;-86
2022/10/03 09:56:46;;;;;;;68.80;4.90;;;15.80;99.90;;;;;;5019955;28;20400;-86
2022/10/03 09:59:35;;;;;;;70.23;5.30;;;16.30;99.90;;;;;;5021529;28;20868;-86
2022/10/03 10:02:38;;;;;;;70.77;5.07;;;16.60;99.90;;;;;;5033927;28;20431;-85
2022/10/03 10:05:28;;;;;;;70.20;4.97;;;16.80;99.90;;;;;;5039579;28;20447;-86
2022/10/03 10:08:13;;;;;;;72.30;5.90;;;17.10;99.90;;;;;;5039383;28;20425;-85
2022/10/03 10:10:51;;;;;;;78.33;9.83;;;17.50;99.90;;;;;;5021704;28;20403;-86
2022/10/03 10:13:51;;;;;;;71.77;8.07;;;17.40;92.60;;;;;;5039454;28;20513;-85
2022/10/03 10:17:05;;;;;;;81.87;11.83;;;17.20;99.10;;;;;;5039427;28;20499;-86
2022/10/03 10:19:52;;;;;;;72.50;14.00;;;17.00;99.90;;;;;;5003055;28;20437;-85
2022/10/03 10:22:55;;;;;;;75.33;14.63;;;16.80;96.50;;;;;;5039245;28;20402;-86
2022/10/03 10:26:03;;;;;;;73.70;14.87;;;16.40;87.30;;;;;;5039273;28;20441;-85
2022/10/03 10:28:53;;;;;;;71.57;12.47;;;16.30;96.50;;;;;;5033300;28;20453;-86
2022/10/03 10:31:25;;;;;;;75.13;17.10;;;16.00;95.10;;;;;;5020709;28;20500;-86
2022/10/03 10:34:32;;;;;;;73.03;18.40;;;16.00;99.90;;;;;;5039240;28;20396;-86
2022/10/03 10:37:07;;;;;;;74.33;15.00;;;16.20;98.20;;;;;;5021443;28;20398;-85
2022/10/03 10:39:48;;;;;;;73.93;13.87;;;16.40;97.90;;;;;;5038689;28;20507;-85
2022/10/03 10:42:38;;;;;;;82.17;15.07;;;16.60;92.60;;;;;;5021071;28;20405;-85
2022/10/03 10:45:35;;;;;;;76.37;12.77;;;16.80;93.90;;;;;;5021171;28;20442;-86
2022/10/03 10:48:39;;;;;;;71.20;9.13;;;17.00;78.60;;;;;;5020739;28;20424;-85
2022/10/03 10:51:30;;;;;;;75.00;7.03;;;17.30;71.60;;;;;;5014266;28;20478;-86
2022/10/03 10:54:02;;;;;;;71.50;5.47;;;17.40;68.30;;;;;;5038979;28;20967;-85
2022/10/03 10:56:46;;;;;;;70.27;4.70;;;17.60;72.40;;;;;;5038730;28;20377;-85
2022/10/03 11:02:59;;;;;;;75.17;5.93;;;18.10;56.90;;;;;;5106541;22;20578;-83
2022/10/03 11:05:50;;;;;;;75.73;4.80;;;18.30;51.90;;;;;;5023940;28;20511;-83
2022/10/03 11:08:37;;;;;;;70.10;4.07;;;18.60;59.80;;;;;;5041636;28;20416;-83
2022/10/03 11:11:41;;;;;;;74.53;4.83;;;18.80;48.20;;;;;;5023826;28;20416;-84
2022/10/03 11:14:29;;;;;;;74.53;4.40;;;18.90;42.50;;;;;;5041511;28;20446;-83
2022/10/03 11:17:31;;;;;;;71.97;5.60;;;19.10;51.20;;;;;;5042349;28;20414;-81
2022/10/03 11:20:18;;;;;;;68.27;4.87;;;19.30;38.80;;;;;;5041543;28;20392;-81
2022/10/03 11:22:56;;;;;;;74.20;4.10;;;19.50;44.60;;;;;;5041327;28;20479;-81
2022/10/03 11:25:36;;;;;;;72.27;4.93;;;19.80;29.00;;;;;;5041894;28;20511;-81
2022/10/03 11:28:27;;;;;;;69.97;4.47;;;20.00;26.10;;;;;;5041552;28;20451;-81
2022/10/03 11:31:08;;;;;;;67.67;3.80;;;20.20;19.70;;;;;;5023483;28;20411;-81
2022/10/03 11:34:05;;;;;;;69.80;4.13;;;20.30;15.80;;;;;;5041503;28;20438;-81
2022/10/03 11:36:51;;;;;;;67.50;3.77;;;20.40;12.80;;;;;;5041193;28;20396;-81
2022/10/03 11:39:25;;;;;;;72.97;7.40;;;20.30;14.80;;;;;;5041398;28;20458;-81
2022/10/03 11:42:12;;;;;;;72.30;7.27;;;20.30;1.00;;;;;;5042977;28;20412;-81
2022/10/03 11:44:48;;;;;;;71.13;8.30;;;19.90;1.00;;;;;;5023245;28;20515;-81
2022/10/03 11:47:47;;;;;;;69.50;8.50;;;20.20;4.20;;;;;;5041305;28;20381;-81
2022/10/03 11:50:17;;;;;;;73.57;9.57;;;20.20;1.00;;;;;;5040813;28;20388;-81
2022/10/03 11:53:14;;;;;;;77.80;9.70;;;20.00;1.00;;;;;;5023432;28;20415;-81
2022/10/03 11:55:54;;;;;;;70.77;6.90;;;19.50;1.00;;;;;;5040938;28;20383;-81
2022/10/03 11:58:41;;;;;;;68.70;7.30;;;19.10;1.00;;;;;;5040187;28;20450;-80
2022/10/03 12:01:38;;;;;;;70.53;7.53;;;18.80;1.90;;;;;;5022942;28;20443;-81
2022/10/03 12:04:06;;;;;;;67.43;6.10;;;18.60;4.00;;;;;;5023141;28;20443;-80
2022/10/03 12:10:22;;;;;;;70.00;7.27;;;18.70;4.30;;;;;;5025106;28;20475;-82
2022/10/03 12:12:57;;;;;;;72.80;6.87;;;18.70;8.30;;;;;;5039942;28;20378;-81
2022/10/03 12:15:46;;;;;;;69.30;6.23;;;18.70;10.40;;;;;;5040282;28;20390;-81
2022/10/03 12:18:41;;;;;;;69.77;5.93;;;18.80;1.00;;;;;;5033110;28;20800;-81
2022/10/03 12:21:19;;;;;;;71.20;5.13;;;18.70;3.30;;;;;;5022373;28;20431;-81
2022/10/03 12:24:23;;;;;;;67.90;5.83;;;18.70;1.70;;;;;;5022813;28;20444;-81
2022/10/03 12:27:11;;;;;;;74.23;5.30;;;18.60;5.10;;;;;;5040423;28;20387;-80
2022/10/03 12:29:44;;;;;;;69.30;4.77;;;18.60;1.00;;;;;;5039343;28;20412;-81
2022/10/03 12:32:39;;;;;;;68.83;4.67;;;18.60;1.00;;;;;;5040187;28;20384;-81
2022/10/03 12:35:41;;;;;;;67.83;4.73;;;18.50;1.00;;;;;;5040025;28;20434;-80
2022/10/03 12:38:34;;;;;;;69.27;5.80;;;18.60;1.00;;;;;;5040370;28;20411;-81
2022/10/03 12:41:09;;;;;;;71.60;6.10;;;18.70;1.00;;;;;;5021912;28;20756;-80
2022/10/03 12:43:52;;;;;;;71.97;5.13;;;18.80;1.00;;;;;;5039638;28;20490;-81
2022/10/03 12:46:47;;;;;;;73.93;5.17;;;18.90;1.00;;;;;;5021388;28;20420;-80
2022/10/03 12:49:24;;;;;;;71.17;4.80;;;19.00;1.00;;;;;;5039748;28;20412;-80
2022/10/03 12:52:01;;;;;;;69.20;4.20;;;19.00;1.00;;;;;;5021839;28;20396;-81
2022/10/03 12:54:36;;;;;;;69.70;4.50;;;19.00;1.00;;;;;;5022473;28;20407;-81
2022/10/03 12:57:44;;;;;;;69.57;3.90;;;19.10;1.00;;;;;;5039957;28;20392;-80
2022/10/03 13:00:19;;;;;;;70.50;4.60;;;19.10;1.00;;;;;;5007002;28;20400;-80
2022/10/03 13:03:05;;;;;;;72.07;5.60;;;19.20;1.00;;;;;;5038817;28;20398;-80
2022/10/03 13:05:30;;;;;;;68.30;4.90;;;19.20;1.00;;;;;;5039284;28;20436;-81
2022/10/03 13:08:18;;;;;;;75.63;3.63;;;19.20;1.00;;;;;;5039203;28;20506;-80
2022/10/03 13:10:48;;;;;;;67.77;4.17;;;19.30;1.00;;;;;;5042998;28;20603;-80
2022/10/03 13:13:26;;;;;;;68.03;4.30;;;19.20;1.00;;;;;;5043465;28;20376;-81
2022/10/03 13:16:04;;;;;;;68.93;3.47;;;19.30;1.00;;;;;;5025221;28;20396;-80
2022/10/03 13:18:41;;;;;;;69.80;3.80;;;19.40;1.00;;;;;;5042902;28;20424;-81
2022/10/03 13:21:40;;;;;;;66.30;3.90;;;19.50;1.00;;;;;;5043243;28;20404;-81
2022/10/03 13:24:08;;;;;;;69.77;4.30;;;19.20;1.00;;;;;;5007196;28;20466;-80
2022/10/03 13:26:49;;;;;;;66.30;3.80;;;19.20;1.00;;;;;;5042950;28;20384;-80
2022/10/03 13:29:24;;;;;;;68.07;3.93;;;19.30;1.00;;;;;;5042541;28;20531;-81
2022/10/03 13:31:55;;;;;;;67.03;3.37;;;19.60;1.00;;;;;;5024879;28;20427;-80
2022/10/03 13:34:28;;;;;;;69.53;3.60;;;19.60;1.00;;;;;;5025197;28;20771;-80
2022/10/03 13:37:18;;;;;;;67.83;3.70;;;19.60;1.00;;;;;;5044807;28;20399;-81
2022/10/03 13:39:54;;;;;;;74.87;5.13;;;19.40;1.00;;;;;;5042736;28;20838;-81
2022/10/03 13:42:32;;;;;;;67.50;2.90;;;19.40;1.00;;;;;;5043658;28;20376;-80
2022/10/03 13:45:05;;;;;;;67.77;3.40;;;19.40;1.00;;;;;;5024763;28;20443;-80
2022/10/03 13:47:50;;;;;;;70.00;3.30;;;19.40;1.00;;;;;;5042714;28;20431;-81
2022/10/03 13:50:29;;;;;;;67.13;3.30;;;19.40;1.00;;;;;;5025155;28;20392;-80
2022/10/03 13:53:08;;;;;;;66.60;3.07;;;19.30;1.00;;;;;;5042877;28;20380;-80
2022/10/03 13:55:57;;;;;;;71.80;3.40;;;19.20;1.00;;;;;;5042715;28;20879;-80
2022/10/03 13:58:34;;;;;;;68.80;3.40;;;19.20;1.00;;;;;;5024926;28;20526;-80
2022/10/03 14:01:12;;;;;;;66.67;3.40;;;19.00;1.00;;;;;;5042144;28;20509;-80
2022/10/03 14:03:44;;;;;;;68.37;3.40;;;18.90;1.00;;;;;;5024398;28;20406;-80
2022/10/03 14:06:22;;;;;;;67.53;3.20;;;18.80;1.00;;;;;;5042510;28;20408;-81
2022/10/03 14:09:00;;;;;;;67.27;4.47;;;18.80;1.00;;;;;;5042147;28;20415;-80
2022/10/03 14:11:43;;;;;;;71.97;4.10;;;18.70;1.00;;;;;;5024692;28;20397;-80
2022/10/03 14:14:51;;;;;;;66.40;3.80;;;18.80;1.00;;;;;;5042173;28;20393;-80
2022/10/03 14:17:35;;;;;;;67.60;3.43;;;18.60;1.00;;;;;;5042261;28;20891;-80
2022/10/03 14:20:23;;;;;;;68.57;3.60;;;18.50;1.00;;;;;;5024999;28;20388;-80
2022/10/03 14:23:04;;;;;;;67.07;3.50;;;18.50;1.00;;;;;;5043830;28;20464;-81
2022/10/03 14:25:55;;;;;;;71.10;3.70;;;18.70;1.00;;;;;;5042101;28;20448;-80
2022/10/03 14:28:34;;;;;;;69.07;3.40;;;18.80;1.00;;;;;;5041684;28;20458;-80
2022/10/03 14:31:08;;;;;;;66.67;3.20;;;18.80;1.00;;;;;;5043037;28;20410;-80